createdAt,value
2022-08-28T00:07:04.291Z,1015.96
2022-08-28T00:22:21.295Z,1016.07
2022-08-28T00:37:37.267Z,1016.09
2022-08-28T00:52:54.234Z,1015.98
2022-08-28T01:08:11.356Z,1016.07
2022-08-28T01:23:29.168Z,1015.94
2022-08-28T01:38:45.136Z,1015.91
2022-08-28T01:54:01.101Z,1016.05
2022-08-28T02:09:14.408Z,1016.16
2022-08-28T02:24:30.044Z,1016.23
2022-08-28T02:39:46.979Z,1016.26
2022-08-28T02:55:02.978Z,1016.21
2022-08-28T03:10:19.921Z,1016.27
2022-08-28T03:25:35.923Z,1016.28
2022-08-28T03:40:51.886Z,1016.43
2022-08-28T03:56:08.822Z,1016.46
2022-08-28T04:11:26.799Z,1016.48
2022-08-28T04:26:43.766Z,1016.62
2022-08-28T04:41:59.769Z,1016.46
2022-08-28T04:57:15.698Z,1016.62
2022-08-28T05:12:32.673Z,1016.76
2022-08-28T05:27:48.649Z,1016.91
2022-08-28T05:43:04.648Z,1016.98
2022-08-28T05:58:21.577Z,1017.07
2022-08-28T06:13:39.548Z,1017.17
2022-08-28T06:28:56.522Z,1017.16
2022-08-28T06:44:12.519Z,1017.3
2022-08-28T06:59:28.445Z,1017.27
2022-08-28T07:14:45.427Z,1017.36
2022-08-28T07:30:01.415Z,1017.41
2022-08-28T07:45:18.392Z,1017.45
2022-08-28T08:00:35.320Z,1017.48
2022-08-28T08:01:20.307Z,1017.48
2022-08-28T08:15:54.407Z,1017.59
2022-08-28T08:31:10.369Z,1017.57
2022-08-28T08:46:26.330Z,1017.58
2022-08-28T09:01:42.289Z,1017.64
2022-08-28T09:16:59.197Z,1017.61
2022-08-28T09:32:16.157Z,1017.52
2022-08-28T09:47:33.098Z,1017.39
2022-08-28T10:02:49.055Z,1017.27
2022-08-28T10:18:06.047Z,1017.11
2022-08-28T10:33:21.989Z,1017.05
2022-08-28T10:48:37.954Z,1016.97
2022-08-28T11:03:53.924Z,1016.85
2022-08-28T11:19:10.891Z,1016.79
2022-08-28T11:34:27.860Z,1016.67
2022-08-28T11:49:44.833Z,1016.6
2022-08-28T12:05:00.804Z,1016.48
2022-08-28T12:20:17.768Z,1016.27
2022-08-28T12:35:33.727Z,1016.19
2022-08-28T12:50:49.733Z,1016.01
2022-08-28T13:06:05.664Z,1015.9
2022-08-28T13:21:32.604Z,1015.72
2022-08-28T13:36:40.605Z,1015.58
2022-08-28T13:51:57.650Z,1015.57
2022-08-28T14:07:13.538Z,1015.33
2022-08-28T14:22:30.624Z,1015.31
2022-08-28T14:37:46.528Z,1015.33
2022-08-28T14:53:02.484Z,1015.25
2022-08-28T15:08:19.458Z,1015.29
2022-08-28T15:23:37.436Z,1015.29
2022-08-28T15:38:54.390Z,1015.26
2022-08-28T15:54:10.356Z,1015.29
2022-08-28T16:09:26.329Z,1015.26
2022-08-28T16:24:43.303Z,1015.35
2022-08-28T16:39:59.301Z,1015.33
2022-08-28T16:55:15.253Z,1015.5
2022-08-28T17:10:32.214Z,1015.52
2022-08-28T17:25:50.177Z,1015.66
2022-08-28T17:41:07.149Z,1015.73
2022-08-28T17:56:23.080Z,1015.73
2022-08-28T18:11:39.113Z,1015.91
2022-08-28T18:26:56.016Z,1016.03
2022-08-28T18:42:12.015Z,1016.32
2022-08-28T18:57:27.955Z,1016.52
2022-08-28T19:12:44.949Z,1016.73
2022-08-28T19:28:02.884Z,1016.86
2022-08-28T19:43:19.890Z,1017.11
2022-08-28T19:58:35.826Z,1017.15
2022-08-28T20:13:51.827Z,1017.35
2022-08-28T20:29:08.763Z,1017.39
2022-08-28T20:44:24.760Z,1017.53
2022-08-28T20:59:41.695Z,1017.59
2022-08-28T21:14:59.662Z,1017.77
2022-08-28T21:30:16.634Z,1017.83
2022-08-28T21:45:32.640Z,1018.03
2022-08-28T22:00:48.602Z,1018.18
2022-08-28T22:16:05.537Z,1018.3
2022-08-28T22:31:21.536Z,1018.36
2022-08-28T22:46:37.473Z,1018.42
2022-08-28T23:01:54.474Z,1018.65
2022-08-28T23:17:12.414Z,1018.82
2022-08-28T23:32:29.381Z,1018.75
2022-08-28T23:47:45.344Z,1018.69
